Wetterdaten: Woche 13.05.13 - 19.05.13 (KW20)
Datum Zeit Temp. Aussen +5cm Feuchte Auss Luftdruck Regen Sonnenschein Regendauer UV Solar Windben
13.05.2013 00:00 9,6 C 8,4 C 80 % 1016,2 hPa 0,0 l/m 0,00 h 0,00 h 0,0 UV-I 0 W/m 5,2 km/h (1 Bft)
13.05.2013 01:00 9,4 C 7,3 C 81 % 1015,8 hPa 0,2 l/m 0,00 h 0,87 h 0,0 UV-I 0 W/m 6,5 km/h (2 Bft)
13.05.2013 02:00 8,6 C 6,8 C 88 % 1015,1 hPa 0,6 l/m 0,00 h 1,00 h 0,0 UV-I 0 W/m 3,4 km/h (1 Bft)
13.05.2013 03:00 8,3 C 6,8 C 93 % 1014,4 hPa 0,8 l/m 0,00 h 1,00 h 0,0 UV-I 0 W/m 6,8 km/h (2 Bft)
13.05.2013 04:00 8,3 C 7,2 C 95 % 1013,4 hPa 0,4 l/m 0,00 h 0,68 h 0,0 UV-I 0 W/m 8,4 km/h (2 Bft)
13.05.2013 05:00 8,5 C 7,5 C 97 % 1013,0 hPa 0,0 l/m 0,00 h 0,07 h 0,0 UV-I 0 W/m 8,7 km/h (2 Bft)
13.05.2013 06:00 8,9 C 8,1 C 97 % 1012,7 hPa 0,4 l/m 0,00 h 0,23 h 0,0 UV-I 11 W/m 8,9 km/h (2 Bft)
13.05.2013 07:00 9,4 C 8,5 C 98 % 1012,6 hPa 0,0 l/m 0,00 h 0,03 h 0,0 UV-I 30 W/m 9,3 km/h (2 Bft)
13.05.2013 08:00 9,9 C 9,3 C 98 % 1012,7 hPa 0,0 l/m 0,00 h 0,07 h 0,0 UV-I 63 W/m 9,3 km/h (2 Bft)
13.05.2013 09:00 10,5 C 9,8 C 99 % 1012,9 hPa 0,0 l/m 0,00 h 0,00 h 0,0 UV-I 87 W/m 11,7 km/h (2 Bft)
13.05.2013 10:00 11,0 C 10,3 C 98 % 1012,9 hPa 0,0 l/m 0,00 h 0,30 h 0,5 UV-I 141 W/m 12,2 km/h (2 Bft)
13.05.2013 11:00 11,2 C 10,2 C 98 % 1013,0 hPa 0,0 l/m 0,00 h 0,10 h 0,0 UV-I 108 W/m 12,5 km/h (3 Bft)
13.05.2013 12:00 11,3 C 10,6 C 97 % 1013,0 hPa 1,0 l/m 0,00 h 0,57 h 0,7 UV-I 162 W/m 10,9 km/h (2 Bft)
13.05.2013 13:00 12,2 C 12,1 C 97 % 1012,7 hPa 0,6 l/m 0,17 h 0,37 h 2,1 UV-I 303 W/m 7,5 km/h (2 Bft)
13.05.2013 14:00 13,7 C 13,0 C 91 % 1012,3 hPa 0,0 l/m 0,33 h 0,00 h 1,9 UV-I 396 W/m 9,9 km/h (2 Bft)
13.05.2013 15:00 14,6 C 14,0 C 81 % 1012,0 hPa 0,0 l/m 0,17 h 0,00 h 1,7 UV-I 304 W/m 12,9 km/h (3 Bft)
13.05.2013 16:00 14,4 C 13,8 C 76 % 1011,9 hPa 0,0 l/m 0,07 h 0,00 h 0,8 UV-I 183 W/m 12,5 km/h (3 Bft)
13.05.2013 17:00 14,7 C 13,9 C 73 % 1011,7 hPa 0,0 l/m 0,23 h 0,00 h 0,7 UV-I 200 W/m 12,4 km/h (3 Bft)
13.05.2013 18:00 14,6 C 13,5 C 67 % 1011,6 hPa 0,0 l/m 0,07 h 0,00 h 0,0 UV-I 171 W/m 17,0 km/h (3 Bft)
13.05.2013 19:00 13,7 C 12,1 C 65 % 1011,5 hPa 0,0 l/m 0,00 h 0,00 h 0,0 UV-I 63 W/m 9,8 km/h (2 Bft)
13.05.2013 20:00 13,1 C 11,5 C 70 % 1011,4 hPa 0,0 l/m 0,10 h 0,00 h 0,0 UV-I 42 W/m 3,2 km/h (1 Bft)
13.05.2013 21:00 12,3 C 10,1 C 74 % 1011,5 hPa 0,0 l/m 0,00 h 0,00 h 0,0 UV-I 6 W/m 1,1 km/h (1 Bft)
13.05.2013 22:00 11,6 C 10,1 C 78 % 1011,4 hPa 0,0 l/m 0,00 h 0,00 h 0,0 UV-I 0 W/m 8,5 km/h (2 Bft)
13.05.2013 23:00 11,2 C 9,7 C 73 % 1011,3 hPa 0,0 l/m 0,00 h 0,00 h 0,0 UV-I 0 W/m 14,9 km/h (3 Bft)
14.05.2013 00:00 10,5 C 9,1 C 73 % 1011,1 hPa 0,0 l/m 0,00 h 0,00 h 0,0 UV-I 0 W/m 13,3 km/h (3 Bft)
14.05.2013 01:00 10,1 C 8,8 C 73 % 1010,7 hPa 0,0 l/m 0,00 h 0,00 h 0,0 UV-I 0 W/m 11,1 km/h (2 Bft)
14.05.2013 02:00 9,6 C 8,1 C 75 % 1010,5 hPa 0,0 l/m 0,00 h 0,00 h 0,0 UV-I 0 W/m 9,6 km/h (2 Bft)
14.05.2013 03:00 9,2 C 7,9 C 77 % 1010,4 hPa 0,0 l/m 0,00 h 0,00 h 0,0 UV-I 0 W/m 8,2 km/h (2 Bft)
14.05.2013 04:00 8,9 C 7,6 C 78 % 1010,5 hPa 0,0 l/m 0,00 h 0,00 h 0,0 UV-I 0 W/m 8,6 km/h (2 Bft)
14.05.2013 05:00 8,6 C 7,3 C 80 % 1010,4 hPa 0,0 l/m 0,00 h 0,00 h 0,0 UV-I 7 W/m 6,4 km/h (2 Bft)
14.05.2013 06:00 8,7 C 7,9 C 82 % 1010,4 hPa 0,0 l/m 0,00 h 0,00 h 0,0 UV-I 35 W/m 6,9 km/h (2 Bft)
14.05.2013 07:00 9,2 C 8,6 C 81 % 1010,4 hPa 0,0 l/m 0,10 h 0,00 h 0,0 UV-I 98 W/m 6,8 km/h (2 Bft)
14.05.2013 08:00 9,8 C 9,5 C 80 % 1010,5 hPa 0,0 l/m 0,37 h 0,00 h 0,0 UV-I 213 W/m 11,1 km/h (2 Bft)
14.05.2013 09:00 10,8 C 11,6 C 77 % 1010,5 hPa 0,0 l/m 0,53 h 0,00 h 0,8 UV-I 335 W/m 9,2 km/h (2 Bft)
14.05.2013 10:00 11,4 C 12,4 C 74 % 1010,4 hPa 0,0 l/m 0,13 h 0,00 h 1,0 UV-I 292 W/m 11,7 km/h (2 Bft)
14.05.2013 11:00 12,2 C 13,7 C 71 % 1010,1 hPa 0,0 l/m 0,37 h 0,00 h 1,5 UV-I 389 W/m 11,0 km/h (2 Bft)
14.05.2013 12:00 12,6 C 13,5 C 70 % 1009,7 hPa 0,0 l/m 0,23 h 0,17 h 1,7 UV-I 399 W/m 12,6 km/h (3 Bft)
14.05.2013 13:00 13,5 C 15,0 C 65 % 1009,1 hPa 0,0 l/m 0,33 h 0,00 h 2,0 UV-I 445 W/m 12,3 km/h (3 Bft)
14.05.2013 14:00 13,8 C 14,7 C 64 % 1008,6 hPa 0,0 l/m 0,30 h 0,00 h 1,8 UV-I 388 W/m 12,5 km/h (3 Bft)
14.05.2013 15:00 13,5 C 13,7 C 66 % 1008,1 hPa 0,0 l/m 0,03 h 0,00 h 1,0 UV-I 208 W/m 5,1 km/h (1 Bft)
14.05.2013 16:00 13,6 C 13,6 C 66 % 1007,5 hPa 0,0 l/m 0,00 h 0,17 h 0,7 UV-I 221 W/m 7,5 km/h (2 Bft)
14.05.2013 17:00 11,9 C 10,3 C 78 % 1007,4 hPa 0,2 l/m 0,00 h 0,97 h 0,0 UV-I 123 W/m 5,1 km/h (1 Bft)
14.05.2013 18:00 11,0 C 9,4 C 87 % 1006,9 hPa 0,0 l/m 0,00 h 1,00 h 0,0 UV-I 86 W/m 0,9 km/h (0 Bft)
14.05.2013 19:00 10,9 C 9,5 C 89 % 1006,1 hPa 0,2 l/m 0,00 h 0,77 h 0,0 UV-I 79 W/m 1,0 km/h (0 Bft)
14.05.2013 20:00 10,7 C 9,0 C 88 % 1005,3 hPa 0,0 l/m 0,00 h 0,03 h 0,0 UV-I 13 W/m 3,2 km/h (1 Bft)
14.05.2013 21:00 10,2 C 9,0 C 90 % 1004,5 hPa 0,0 l/m 0,00 h 0,00 h 0,0 UV-I 6 W/m 3,2 km/h (1 Bft)
14.05.2013 22:00 10,0 C 9,0 C 92 % 1004,0 hPa 0,0 l/m 0,00 h 0,00 h 0,0 UV-I 0 W/m 1,9 km/h (1 Bft)
14.05.2013 23:00 9,8 C 8,9 C 93 % 1003,3 hPa 0,0 l/m 0,00 h 0,03 h 0,0 UV-I 0 W/m 0,1 km/h (0 Bft)
15.05.2013 00:00 9,5 C 7,8 C 94 % 1002,4 hPa 0,0 l/m 0,00 h 0,00 h 0,0 UV-I 0 W/m 0,0 km/h (0 Bft)
15.05.2013 01:00 8,8 C 7,0 C 94 % 1001,6 hPa 0,0 l/m 0,00 h 0,00 h 0,0 UV-I 0 W/m 1,7 km/h (1 Bft)
15.05.2013 02:00 8,6 C 7,6 C 95 % 1000,7 hPa 0,0 l/m 0,00 h 0,00 h 0,0 UV-I 0 W/m 6,6 km/h (2 Bft)
15.05.2013 03:00 9,1 C 8,7 C 96 % 1000,2 hPa 0,0 l/m 0,00 h 0,00 h 0,0 UV-I 0 W/m 8,7 km/h (2 Bft)
15.05.2013 04:00 9,9 C 9,0 C 94 % 999,2 hPa 0,0 l/m 0,00 h 0,00 h 0,0 UV-I 0 W/m 7,0 km/h (2 Bft)
15.05.2013 05:00 10,2 C 9,0 C 91 % 998,3 hPa 0,0 l/m 0,00 h 0,00 h 0,0 UV-I 7 W/m 14,3 km/h (3 Bft)
15.05.2013 06:00 10,3 C 9,5 C 92 % 998,3 hPa 0,0 l/m 0,20 h 0,00 h 0,0 UV-I 47 W/m 16,5 km/h (3 Bft)
15.05.2013 07:00 11,1 C 10,5 C 92 % 998,6 hPa 0,0 l/m 0,00 h 0,23 h 0,0 UV-I 57 W/m 12,7 km/h (3 Bft)
15.05.2013 08:00 11,8 C 11,2 C 92 % 998,8 hPa 0,0 l/m 0,00 h 0,03 h 0,0 UV-I 107 W/m 12,0 km/h (2 Bft)
15.05.2013 09:00 13,0 C 13,1 C 91 % 999,3 hPa 0,0 l/m 0,00 h 0,00 h 0,5 UV-I 135 W/m 5,6 km/h (1 Bft)
15.05.2013 10:00 14,1 C 13,4 C 85 % 999,3 hPa 0,0 l/m 0,00 h 0,07 h 0,9 UV-I 98 W/m 4,0 km/h (1 Bft)
15.05.2013 11:00 13,7 C 11,7 C 88 % 1000,0 hPa 1,0 l/m 0,00 h 0,73 h 0,7 UV-I 137 W/m 3,9 km/h (1 Bft)
15.05.2013 12:00 13,9 C 12,3 C 92 % 999,8 hPa 0,0 l/m 0,00 h 0,07 h 0,0 UV-I 112 W/m 3,0 km/h (1 Bft)
15.05.2013 13:00 14,6 C 13,2 C 88 % 999,8 hPa 0,0 l/m 0,00 h 0,00 h 1,0 UV-I 215 W/m 6,1 km/h (2 Bft)
15.05.2013 14:00 14,9 C 13,0 C 84 % 1000,0 hPa 0,0 l/m 0,00 h 0,17 h 0,0 UV-I 86 W/m 0,4 km/h (0 Bft)
15.05.2013 15:00 14,4 C 12,8 C 83 % 1000,6 hPa 0,0 l/m 0,00 h 0,00 h 0,0 UV-I 69 W/m 2,2 km/h (1 Bft)
15.05.2013 16:00 14,2 C 13,4 C 80 % 1000,7 hPa 0,0 l/m 0,00 h 0,17 h 0,5 UV-I 139 W/m 3,8 km/h (1 Bft)
15.05.2013 17:00 14,9 C 13,8 C 77 % 1000,7 hPa 0,0 l/m 0,00 h 0,43 h 0,0 UV-I 131 W/m 5,8 km/h (2 Bft)
15.05.2013 18:00 15,1 C 14,3 C 79 % 1000,7 hPa 0,0 l/m 0,00 h 0,03 h 0,0 UV-I 132 W/m 5,7 km/h (1 Bft)
15.05.2013 19:00 15,5 C 14,0 C 73 % 1000,8 hPa 0,0 l/m 0,17 h 0,00 h 0,0 UV-I 84 W/m 9,9 km/h (2 Bft)
15.05.2013 20:00 14,8 C 12,7 C 74 % 1000,9 hPa 0,0 l/m 0,00 h 0,00 h 0,0 UV-I 30 W/m 2,5 km/h (1 Bft)
15.05.2013 21:00 13,9 C 10,8 C 77 % 1001,7 hPa 0,0 l/m 0,00 h 0,00 h 0,0 UV-I 8 W/m 0,1 km/h (0 Bft)
15.05.2013 22:00 11,9 C 8,6 C 83 % 1002,3 hPa 0,0 l/m 0,00 h 0,00 h 0,0 UV-I 0 W/m 0,0 km/h (0 Bft)
15.05.2013 23:00 10,5 C 8,7 C 87 % 1002,4 hPa 0,0 l/m 0,00 h 0,00 h 0,0 UV-I 0 W/m 0,0 km/h (0 Bft)
16.05.2013 00:00 10,1 C 8,6 C 89 % 1002,4 hPa 0,0 l/m 0,00 h 0,00 h 0,0 UV-I 0 W/m 0,0 km/h (0 Bft)
16.05.2013 01:00 9,8 C 8,5 C 91 % 1002,1 hPa 0,0 l/m 0,00 h 0,00 h 0,0 UV-I 0 W/m 0,0 km/h (0 Bft)
16.05.2013 02:00 9,8 C 9,0 C 93 % 1001,8 hPa 0,0 l/m 0,00 h 0,00 h 0,0 UV-I 0 W/m 0,0 km/h (0 Bft)
16.05.2013 03:00 9,7 C 8,5 C 94 % 1001,6 hPa 0,0 l/m 0,00 h 0,00 h 0,0 UV-I 0 W/m 0,0 km/h (0 Bft)
16.05.2013 04:00 9,3 C 7,6 C 94 % 1000,8 hPa 0,0 l/m 0,00 h 0,00 h 0,0 UV-I 0 W/m 0,0 km/h (0 Bft)
16.05.2013 05:00 8,7 C 8,0 C 94 % 1000,7 hPa 0,0 l/m 0,00 h 0,00 h 0,0 UV-I 7 W/m 0,0 km/h (0 Bft)
16.05.2013 06:00 9,1 C 8,8 C 95 % 1000,6 hPa 0,0 l/m 0,00 h 0,00 h 0,0 UV-I 11 W/m 0,0 km/h (0 Bft)
16.05.2013 07:00 9,8 C 9,1 C 96 % 1000,1 hPa 0,0 l/m 0,00 h 0,20 h 0,0 UV-I 19 W/m 2,0 km/h (1 Bft)
16.05.2013 08:00 10,4 C 10,0 C 96 % 999,5 hPa 0,0 l/m 0,00 h 0,00 h 0,0 UV-I 78 W/m 7,9 km/h (2 Bft)
16.05.2013 09:00 11,5 C 11,6 C 95 % 998,8 hPa 0,0 l/m 0,00 h 0,00 h 0,0 UV-I 138 W/m 5,3 km/h (1 Bft)
16.05.2013 10:00 13,0 C 13,1 C 92 % 998,3 hPa 0,2 l/m 0,00 h 0,33 h 0,0 UV-I 160 W/m 4,0 km/h (1 Bft)
16.05.2013 11:00 13,9 C 14,1 C 91 % 997,8 hPa 0,0 l/m 0,00 h 0,10 h 1,1 UV-I 306 W/m 8,8 km/h (2 Bft)
16.05.2013 12:00 15,2 C 16,1 C 88 % 997,2 hPa 0,0 l/m 0,00 h 0,00 h 1,4 UV-I 325 W/m 8,0 km/h (2 Bft)
16.05.2013 13:00 15,3 C 15,2 C 88 % 996,5 hPa 0,0 l/m 0,00 h 0,43 h 0,9 UV-I 246 W/m 9,5 km/h (2 Bft)
16.05.2013 14:00 15,5 C 13,7 C 91 % 996,1 hPa 2,0 l/m 0,00 h 0,93 h 0,0 UV-I 80 W/m 1,1 km/h (1 Bft)
16.05.2013 15:00 14,3 C 12,6 C 94 % 996,0 hPa 4,0 l/m 0,00 h 1,00 h 0,0 UV-I 49 W/m 2,0 km/h (1 Bft)
16.05.2013 16:00 13,4 C 12,1 C 96 % 996,0 hPa 6,0 l/m 0,00 h 1,00 h 0,0 UV-I 36 W/m 1,9 km/h (1 Bft)
16.05.2013 17:00 13,2 C 12,3 C 97 % 996,0 hPa 3,2 l/m 0,00 h 1,00 h 0,0 UV-I 82 W/m 1,0 km/h (0 Bft)
16.05.2013 18:00 13,4 C 12,6 C 98 % 995,7 hPa 0,2 l/m 0,00 h 0,17 h 0,0 UV-I 63 W/m 1,2 km/h (1 Bft)
16.05.2013 19:00 13,0 C 11,7 C 98 % 996,1 hPa 0,0 l/m 0,00 h 0,03 h 0,0 UV-I 21 W/m 5,1 km/h (1 Bft)
16.05.2013 20:00 11,9 C 10,7 C 97 % 996,5 hPa 0,0 l/m 0,00 h 0,00 h 0,0 UV-I 10 W/m 8,1 km/h (2 Bft)
16.05.2013 21:00 10,8 C 9,8 C 98 % 997,0 hPa 0,0 l/m 0,00 h 0,00 h 0,0 UV-I 5 W/m 7,5 km/h (2 Bft)
16.05.2013 22:00 10,2 C 9,4 C 98 % 997,7 hPa 0,0 l/m 0,00 h 0,00 h 0,0 UV-I 0 W/m 5,1 km/h (1 Bft)
16.05.2013 23:00 9,6 C 8,6 C 98 % 998,0 hPa 0,0 l/m 0,00 h 0,00 h 0,0 UV-I 0 W/m 6,5 km/h (2 Bft)
17.05.2013 00:00 9,2 C 8,4 C 98 % 998,1 hPa 0,0 l/m 0,00 h 0,00 h 0,0 UV-I 0 W/m 5,7 km/h (1 Bft)
17.05.2013 01:00 9,1 C 8,4 C 97 % 998,4 hPa 0,0 l/m 0,00 h 0,00 h 0,0 UV-I 0 W/m 2,7 km/h (1 Bft)
17.05.2013 02:00 8,9 C 8,4 C 97 % 998,4 hPa 0,0 l/m 0,00 h 0,00 h 0,0 UV-I 0 W/m 1,2 km/h (1 Bft)
17.05.2013 03:00 8,9 C 8,4 C 97 % 999,0 hPa 0,0 l/m 0,00 h 0,00 h 0,0 UV-I 0 W/m 1,3 km/h (1 Bft)
17.05.2013 04:00 8,9 C 8,4 C 97 % 999,1 hPa 0,0 l/m 0,00 h 0,00 h 0,0 UV-I 0 W/m 1,5 km/h (1 Bft)
17.05.2013 05:00 8,8 C 8,4 C 98 % 999,5 hPa 0,0 l/m 0,00 h 0,00 h 0,0 UV-I 0 W/m 1,2 km/h (1 Bft)
17.05.2013 06:00 8,8 C 8,0 C 98 % 999,8 hPa 0,0 l/m 0,00 h 0,20 h 0,0 UV-I 8 W/m 2,7 km/h (1 Bft)
17.05.2013 07:00 8,9 C 8,4 C 98 % 1000,2 hPa 0,0 l/m 0,00 h 0,00 h 0,0 UV-I 23 W/m 4,2 km/h (1 Bft)
17.05.2013 08:00 9,2 C 8,8 C 99 % 1000,4 hPa 0,0 l/m 0,00 h 0,00 h 0,0 UV-I 44 W/m 3,2 km/h (1 Bft)
17.05.2013 09:00 9,3 C 9,0 C 99 % 1001,0 hPa 0,0 l/m 0,00 h 0,00 h 0,0 UV-I 62 W/m 2,9 km/h (1 Bft)
17.05.2013 10:00 9,5 C 9,3 C 99 % 1001,1 hPa 0,0 l/m 0,00 h 0,00 h 0,0 UV-I 93 W/m 6,1 km/h (2 Bft)
17.05.2013 11:00 9,7 C 9,6 C 98 % 1001,4 hPa 0,0 l/m 0,00 h 0,00 h 0,0 UV-I 75 W/m 4,4 km/h (1 Bft)
17.05.2013 12:00 10,1 C 9,9 C 97 % 1001,8 hPa 0,0 l/m 0,00 h 0,00 h 0,0 UV-I 89 W/m 6,1 km/h (2 Bft)
17.05.2013 13:00 10,5 C 10,1 C 97 % 1001,9 hPa 0,0 l/m 0,00 h 0,27 h 0,0 UV-I 107 W/m 2,1 km/h (1 Bft)
17.05.2013 14:00 10,7 C 10,1 C 96 % 1002,3 hPa 0,0 l/m 0,00 h 0,00 h 0,0 UV-I 59 W/m 3,5 km/h (1 Bft)
17.05.2013 15:00 10,6 C 9,7 C 95 % 1002,9 hPa 0,0 l/m 0,00 h 0,00 h 0,0 UV-I 35 W/m 2,7 km/h (1 Bft)
17.05.2013 16:00 10,2 C 9,1 C 96 % 1002,8 hPa 0,7 l/m 0,00 h 0,70 h 0,0 UV-I 37 W/m 3,1 km/h (1 Bft)
17.05.2013 17:00 10,2 C 9,5 C 97 % 1003,0 hPa 0,0 l/m 0,00 h 0,63 h 0,0 UV-I 59 W/m 2,6 km/h (1 Bft)
17.05.2013 18:00 10,4 C 9,7 C 97 % 1003,4 hPa 0,1 l/m 0,00 h 0,37 h 0,0 UV-I 58 W/m 0,9 km/h (0 Bft)
17.05.2013 19:00 10,4 C 9,6 C 97 % 1003,7 hPa 0,0 l/m 0,00 h 0,17 h 0,0 UV-I 43 W/m 1,8 km/h (1 Bft)
17.05.2013 20:00 10,2 C 9,1 C 97 % 1003,9 hPa 0,0 l/m 0,00 h 0,00 h 0,0 UV-I 11 W/m 1,0 km/h (0 Bft)
17.05.2013 21:00 10,0 C 9,0 C 97 % 1004,3 hPa 0,0 l/m 0,00 h 0,00 h 0,0 UV-I 6 W/m 1,3 km/h (1 Bft)
17.05.2013 22:00 9,8 C 8,7 C 97 % 1004,7 hPa 0,0 l/m 0,00 h 0,00 h 0,0 UV-I 0 W/m 1,8 km/h (1 Bft)
17.05.2013 23:00 9,5 C 8,4 C 97 % 1005,2 hPa 0,0 l/m 0,00 h 0,00 h 0,0 UV-I 0 W/m 2,2 km/h (1 Bft)
18.05.2013 00:00 9,2 C 8,2 C 97 % 1005,4 hPa 0,0 l/m 0,00 h 0,00 h 0,0 UV-I 0 W/m 3,9 km/h (1 Bft)
18.05.2013 01:00 9,0 C 7,9 C 97 % 1005,5 hPa 0,0 l/m 0,00 h 0,00 h 0,0 UV-I 0 W/m 2,0 km/h (1 Bft)
18.05.2013 02:00 8,7 C 7,5 C 97 % 1005,7 hPa 0,0 l/m 0,00 h 0,00 h 0,0 UV-I 0 W/m 2,5 km/h (1 Bft)
18.05.2013 03:00 8,6 C 7,3 C 96 % 1006,0 hPa 0,0 l/m 0,00 h 0,00 h 0,0 UV-I 0 W/m 2,8 km/h (1 Bft)
18.05.2013 04:00 8,4 C 7,3 C 96 % 1006,0 hPa 0,0 l/m 0,00 h 0,00 h 0,0 UV-I 0 W/m 3,1 km/h (1 Bft)
18.05.2013 05:00 8,3 C 7,3 C 96 % 1006,3 hPa 0,0 l/m 0,00 h 0,00 h 0,0 UV-I 5 W/m 3,6 km/h (1 Bft)
18.05.2013 06:00 8,3 C 7,3 C 96 % 1006,8 hPa 0,0 l/m 0,00 h 0,00 h 0,0 UV-I 10 W/m 4,4 km/h (1 Bft)
18.05.2013 07:00 8,3 C 7,4 C 97 % 1007,3 hPa 0,0 l/m 0,00 h 0,00 h 0,0 UV-I 25 W/m 2,2 km/h (1 Bft)
18.05.2013 08:00 8,5 C 8,3 C 97 % 1007,6 hPa 0,0 l/m 0,00 h 0,00 h 0,0 UV-I 62 W/m 4,1 km/h (1 Bft)
18.05.2013 09:00 8,8 C 8,5 C 96 % 1008,1 hPa 0,0 l/m 0,00 h 0,00 h 0,0 UV-I 66 W/m 2,1 km/h (1 Bft)
18.05.2013 10:00 9,3 C 9,3 C 95 % 1008,4 hPa 0,0 l/m 0,00 h 0,00 h 0,8 UV-I 147 W/m 3,4 km/h (1 Bft)
18.05.2013 11:00 10,5 C 10,6 C 90 % 1008,9 hPa 0,0 l/m 0,00 h 0,00 h 0,5 UV-I 158 W/m 2,6 km/h (1 Bft)
18.05.2013 12:00 11,1 C 11,3 C 87 % 1009,1 hPa 0,0 l/m 0,00 h 0,00 h 0,9 UV-I 202 W/m 1,3 km/h (1 Bft)
18.05.2013 13:00 11,8 C 11,9 C 83 % 1009,1 hPa 0,0 l/m 0,00 h 0,00 h 0,9 UV-I 237 W/m 4,3 km/h (1 Bft)
18.05.2013 14:00 12,7 C 14,1 C 79 % 1008,9 hPa 0,0 l/m 0,40 h 0,00 h 1,6 UV-I 413 W/m 5,4 km/h (1 Bft)
18.05.2013 15:00 13,6 C 14,9 C 75 % 1008,6 hPa 0,0 l/m 0,27 h 0,00 h 1,8 UV-I 442 W/m 2,7 km/h (1 Bft)
18.05.2013 16:00 13,6 C 13,9 C 76 % 1008,6 hPa 0,0 l/m 0,00 h 0,00 h 0,7 UV-I 202 W/m 2,3 km/h (1 Bft)
18.05.2013 17:00 14,0 C 13,9 C 75 % 1008,6 hPa 0,0 l/m 0,30 h 0,00 h 0,8 UV-I 285 W/m 2,0 km/h (1 Bft)
18.05.2013 18:00 14,3 C 13,3 C 74 % 1008,3 hPa 0,0 l/m 0,27 h 0,00 h 0,6 UV-I 183 W/m 4,9 km/h (1 Bft)
18.05.2013 19:00 14,3 C 12,7 C 75 % 1008,3 hPa 0,0 l/m 0,00 h 0,00 h 0,0 UV-I 44 W/m 2,1 km/h (1 Bft)
18.05.2013 20:00 13,8 C 11,5 C 77 % 1008,5 hPa 0,0 l/m 0,00 h 0,00 h 0,0 UV-I 23 W/m 0,7 km/h (0 Bft)
18.05.2013 21:00 12,5 C 10,2 C 82 % 1008,9 hPa 0,0 l/m 0,00 h 0,00 h 0,0 UV-I 8 W/m 3,4 km/h (1 Bft)
18.05.2013 22:00 10,9 C 9,1 C 87 % 1009,3 hPa 0,0 l/m 0,00 h 0,00 h 0,0 UV-I 0 W/m 1,3 km/h (1 Bft)
18.05.2013 23:00 9,8 C 8,3 C 91 % 1009,0 hPa 0,0 l/m 0,00 h 0,00 h 0,0 UV-I 0 W/m 0,9 km/h (0 Bft)
19.05.2013 00:00 9,1 C 7,2 C 93 % 1009,0 hPa 0,0 l/m 0,00 h 0,00 h 0,0 UV-I 0 W/m 0,0 km/h (0 Bft)
19.05.2013 01:00 8,3 C 6,5 C 92 % 1008,8 hPa 0,0 l/m 0,00 h 0,00 h 0,0 UV-I 0 W/m 0,0 km/h (0 Bft)
19.05.2013 02:00 7,8 C 5,9 C 94 % 1008,6 hPa 0,0 l/m 0,00 h 0,00 h 0,0 UV-I 0 W/m 0,0 km/h (0 Bft)
19.05.2013 03:00 7,1 C 5,3 C 95 % 1008,6 hPa 0,0 l/m 0,00 h 0,00 h 0,0 UV-I 0 W/m 0,0 km/h (0 Bft)
19.05.2013 04:00 6,7 C 5,5 C 95 % 1008,6 hPa 0,0 l/m 0,00 h 0,00 h 0,0 UV-I 0 W/m 0,3 km/h (0 Bft)
19.05.2013 05:00 6,9 C 5,2 C 96 % 1008,5 hPa 0,0 l/m 0,00 h 0,00 h 0,0 UV-I 8 W/m 0,0 km/h (0 Bft)
19.05.2013 06:00 6,3 C 5,0 C 96 % 1008,9 hPa 0,0 l/m 0,00 h 0,00 h 0,0 UV-I 28 W/m 0,0 km/h (0 Bft)
19.05.2013 07:00 7,0 C 6,9 C 97 % 1009,0 hPa 0,0 l/m 0,00 h 0,00 h 0,0 UV-I 68 W/m 0,4 km/h (0 Bft)
19.05.2013 08:00 8,9 C 9,2 C 98 % 1009,0 hPa 0,0 l/m 0,47 h 0,00 h 0,0 UV-I 225 W/m 4,5 km/h (1 Bft)
19.05.2013 09:00 10,2 C 11,7 C 98 % 1008,8 hPa 0,0 l/m 0,57 h 0,00 h 1,0 UV-I 375 W/m 10,8 km/h (2 Bft)
19.05.2013 10:00 13,5 C 19,4 C 89 % 1008,1 hPa 0,0 l/m 1,00 h 0,00 h 2,3 UV-I 626 W/m 13,7 km/h (3 Bft)
19.05.2013 11:00 16,1 C 20,9 C 77 % 1007,5 hPa 0,0 l/m 1,00 h 0,00 h 3,6 UV-I 742 W/m 17,1 km/h (3 Bft)
19.05.2013 12:00 17,7 C 24,0 C 71 % 1007,5 hPa 0,0 l/m 1,00 h 0,00 h 4,1 UV-I 814 W/m 16,2 km/h (3 Bft)
19.05.2013 13:00 18,7 C 22,6 C 69 % 1007,4 hPa 0,0 l/m 1,00 h 0,00 h 2,9 UV-I 828 W/m 18,7 km/h (3 Bft)
19.05.2013 14:00 19,2 C 19,8 C 68 % 1007,0 hPa 0,0 l/m 1,00 h 0,00 h 4,4 UV-I 807 W/m 21,1 km/h (4 Bft)
19.05.2013 15:00 19,7 C 20,1 C 66 % 1006,8 hPa 0,0 l/m 1,00 h 0,00 h 3,6 UV-I 735 W/m 19,3 km/h (3 Bft)
19.05.2013 16:00 19,8 C 20,0 C 66 % 1006,4 hPa 0,0 l/m 1,00 h 0,00 h 2,4 UV-I 626 W/m 19,5 km/h (3 Bft)
19.05.2013 17:00 19,5 C 18,7 C 67 % 1006,2 hPa 0,0 l/m 1,00 h 0,00 h 1,3 UV-I 469 W/m 19,7 km/h (3 Bft)
19.05.2013 18:00 18,7 C 17,7 C 70 % 1006,0 hPa 0,0 l/m 0,33 h 0,00 h 0,7 UV-I 196 W/m 20,0 km/h (4 Bft)
19.05.2013 19:00 17,3 C 16,3 C 74 % 1006,1 hPa 0,0 l/m 0,00 h 0,00 h 0,0 UV-I 73 W/m 22,3 km/h (4 Bft)
19.05.2013 20:00 15,4 C 14,2 C 79 % 1006,6 hPa 0,0 l/m 0,00 h 0,00 h 0,0 UV-I 39 W/m 18,0 km/h (3 Bft)
19.05.2013 21:00 14,0 C 12,2 C 81 % 1007,2 hPa 0,0 l/m 0,00 h 0,00 h 0,0 UV-I 11 W/m 11,1 km/h (2 Bft)
19.05.2013 22:00 12,6 C 11,0 C 84 % 1007,5 hPa 0,0 l/m 0,00 h 0,00 h 0,0 UV-I 0 W/m 6,9 km/h (2 Bft)
19.05.2013 23:00 11,8 C 10,4 C 86 % 1007,5 hPa 0,0 l/m 0,00 h 0,00 h 0,0 UV-I 0 W/m 4,2 km/h (1 Bft)
Min-Datum _ 19.05.13 19.05.13 13.05.13 16.05.13 - - - - - 13.05.13
_ Min-Zeit 06:44 05:56 18:40 17:54 - - - - - 00:00
Minimum _ 6,1 C 4,6 C 61 % 995,6 hPa - - - - - 0,0 km/h (0 Bft)
Max-Datum _ 19.05.13 19.05.13 13.05.13 13.05.13 16.05.13 13.05.13 13.05.13 19.05.13 13.05.13 13.05.13
_ Max-Zeit 15:56 12:24 08:36 00:40 16:06 13:42 01:02 12:34 14:40 18:50
Maximum _ 20,2 C 25,7 C 99 % 1016,4 hPa 6,0 l/m 0,03 h 0,03 h 4,6 UV-I 969 W/m 33,5 km/h
W-SW (5 Bft)
Durchschnitt _ 11,4 C 10,7 C 88 % 1005,3 hPa #21,8 l/m #14:30 h #17:53 h 1,4 UV-I 161 W/m 5,9 km/h (2 Bft)
© 2013 W. Hausmann